createdAt,value
2016-10-24T00:00:19.506Z,1007.41
2016-10-24T00:01:19.485Z,1007.39
2016-10-24T00:02:19.468Z,1007.32
2016-10-24T00:03:19.453Z,1007.3
2016-10-24T00:04:19.436Z,1007.32
2016-10-24T00:05:19.418Z,1007.32
2016-10-24T00:06:19.403Z,1007.31
2016-10-24T00:07:19.384Z,1007.29
2016-10-24T00:08:19.370Z,1007.26
2016-10-24T00:09:19.357Z,1007.31
2016-10-24T00:10:19.336Z,1007.33
2016-10-24T00:11:19.321Z,1007.36
2016-10-24T00:12:19.304Z,1007.44
2016-10-24T00:13:19.286Z,1007.42
2016-10-24T00:14:19.269Z,1007.41
2016-10-24T00:15:19.260Z,1007.45
2016-10-24T00:16:19.238Z,1007.46
2016-10-24T00:17:19.221Z,1007.43
2016-10-24T00:18:19.206Z,1007.4
2016-10-24T00:19:19.190Z,1007.4
2016-10-24T00:20:19.173Z,1007.32
2016-10-24T00:21:19.156Z,1007.28
2016-10-24T00:22:19.145Z,1007.34
2016-10-24T00:23:19.124Z,1007.37
2016-10-24T00:24:19.105Z,1007.41
2016-10-24T00:25:19.091Z,1007.42
2016-10-24T00:26:19.076Z,1007.41
2016-10-24T00:27:19.057Z,1007.44
2016-10-24T00:28:19.041Z,1007.4
2016-10-24T00:29:19.028Z,1007.45
2016-10-24T00:30:19.013Z,1007.44
2016-10-24T00:31:18.990Z,1007.37
2016-10-24T00:32:18.974Z,1007.36
2016-10-24T00:33:18.959Z,1007.32
2016-10-24T00:34:18.942Z,1007.29
2016-10-24T00:35:18.925Z,1007.25
2016-10-24T00:36:18.910Z,1007.29
2016-10-24T00:37:18.894Z,1007.3
2016-10-24T00:38:18.878Z,1007.36
2016-10-24T00:39:18.862Z,1007.37
2016-10-24T00:40:18.849Z,1007.41
2016-10-24T00:41:18.829Z,1007.44
2016-10-24T00:42:18.816Z,1007.5
2016-10-24T00:43:18.795Z,1007.55
2016-10-24T00:44:18.783Z,1007.58
2016-10-24T00:45:18.762Z,1007.54
2016-10-24T00:46:18.745Z,1007.5
2016-10-24T00:47:18.730Z,1007.47
2016-10-24T00:48:18.713Z,1007.44
2016-10-24T00:49:18.700Z,1007.44
2016-10-24T00:50:18.680Z,1007.45
2016-10-24T00:51:18.663Z,1007.4
2016-10-24T00:52:18.648Z,1007.3
2016-10-24T00:53:18.637Z,1007.31
2016-10-24T00:54:18.615Z,1007.3
2016-10-24T00:55:18.600Z,1007.3
2016-10-24T00:56:18.583Z,1007.22
2016-10-24T00:57:18.563Z,1007.23
2016-10-24T00:58:18.549Z,1007.25
2016-10-24T00:59:18.533Z,1007.27
2016-10-24T01:00:18.518Z,1007.3
2016-10-24T01:01:18.501Z,1007.33
2016-10-24T01:02:18.485Z,1007.32
2016-10-24T01:03:18.464Z,1007.37
2016-10-24T01:04:18.451Z,1007.4
2016-10-24T01:05:18.434Z,1007.41
2016-10-24T01:06:18.419Z,1007.45
2016-10-24T01:07:18.403Z,1007.53
2016-10-24T01:08:18.384Z,1007.58
2016-10-24T01:09:18.371Z,1007.63
2016-10-24T01:10:18.352Z,1007.59
2016-10-24T01:11:18.335Z,1007.59
2016-10-24T01:12:18.318Z,1007.54
2016-10-24T01:13:18.304Z,1007.6
2016-10-24T01:14:18.285Z,1007.64
2016-10-24T01:15:18.269Z,1007.61
2016-10-24T01:16:18.252Z,1007.59
2016-10-24T01:17:18.236Z,1007.55
2016-10-24T01:18:18.220Z,1007.55
2016-10-24T01:19:18.203Z,1007.55
2016-10-24T01:20:18.189Z,1007.5
2016-10-24T01:21:18.170Z,1007.5
2016-10-24T01:22:18.155Z,1007.44
2016-10-24T01:23:18.138Z,1007.48
2016-10-24T01:24:18.121Z,1007.5
2016-10-24T01:25:18.101Z,1007.51
2016-10-24T01:26:18.088Z,1007.54
2016-10-24T01:27:18.069Z,1007.54
2016-10-24T01:28:18.056Z,1007.59
2016-10-24T01:29:18.040Z,1007.63
2016-10-24T01:30:18.021Z,1007.57
2016-10-24T01:31:18.010Z,1007.56
2016-10-24T01:32:17.988Z,1007.6
2016-10-24T01:33:17.969Z,1007.57
2016-10-24T01:34:17.956Z,1007.58
2016-10-24T01:35:17.939Z,1007.57
2016-10-24T01:36:17.921Z,1007.6
2016-10-24T01:37:17.906Z,1007.62
2016-10-24T01:38:17.891Z,1007.61
2016-10-24T01:39:17.874Z,1007.65
2016-10-24T01:40:17.860Z,1007.66
2016-10-24T01:41:17.837Z,1007.7
2016-10-24T01:42:17.828Z,1007.72
2016-10-24T01:43:17.807Z,1007.73
2016-10-24T01:44:17.788Z,1007.71
2016-10-24T01:45:17.774Z,1007.75
2016-10-24T01:46:17.757Z,1007.8
2016-10-24T01:47:17.741Z,1007.8
2016-10-24T01:48:17.723Z,1007.83
2016-10-24T01:49:17.705Z,1007.88
2016-10-24T01:50:17.690Z,1007.83
2016-10-24T01:51:17.679Z,1007.83
2016-10-24T01:52:17.656Z,1007.84
2016-10-24T01:53:17.642Z,1007.84
2016-10-24T01:54:17.627Z,1007.84
2016-10-24T01:55:17.608Z,1007.82
2016-10-24T01:56:17.589Z,1007.79
2016-10-24T01:57:17.574Z,1007.74
2016-10-24T01:58:17.558Z,1007.69
2016-10-24T01:59:17.541Z,1007.66
2016-10-24T02:00:17.530Z,1007.61
2016-10-24T02:01:17.509Z,1007.65
2016-10-24T02:02:17.496Z,1007.56
2016-10-24T02:03:17.476Z,1007.48
2016-10-24T02:04:17.457Z,1007.43
2016-10-24T02:05:17.444Z,1007.37
2016-10-24T02:06:17.427Z,1007.29
2016-10-24T02:07:17.410Z,1007.18
2016-10-24T02:08:17.393Z,1007.19
2016-10-24T02:09:17.381Z,1007.24
2016-10-24T02:10:17.360Z,1007.26
2016-10-24T02:11:17.346Z,1007.26
2016-10-24T02:12:17.328Z,1007.25
2016-10-24T02:13:17.311Z,1007.23
2016-10-24T02:14:17.295Z,1007.22
2016-10-24T02:15:17.278Z,1007.28
2016-10-24T02:16:17.263Z,1007.31
2016-10-24T02:17:17.244Z,1007.37
2016-10-24T02:18:17.233Z,1007.45
2016-10-24T02:19:17.213Z,1007.51
2016-10-24T02:20:17.197Z,1007.55
2016-10-24T02:21:17.179Z,1007.53
2016-10-24T02:22:17.162Z,1007.51
2016-10-24T02:23:17.147Z,1007.52
2016-10-24T02:24:17.130Z,1007.5
2016-10-24T02:25:17.113Z,1007.47
2016-10-24T02:26:17.095Z,1007.49
2016-10-24T02:27:17.078Z,1007.47
2016-10-24T02:28:17.065Z,1007.47
2016-10-24T02:29:17.048Z,1007.46
2016-10-24T02:30:17.033Z,1007.45
2016-10-24T02:31:17.019Z,1007.45
2016-10-24T02:32:16.998Z,1007.48
2016-10-24T02:33:16.982Z,1007.53
2016-10-24T02:34:16.966Z,1007.54
2016-10-24T02:35:16.948Z,1007.58
2016-10-24T02:36:16.934Z,1007.57
2016-10-24T02:37:16.914Z,1007.56
2016-10-24T02:38:16.899Z,1007.52
2016-10-24T02:39:16.882Z,1007.53
2016-10-24T02:40:16.869Z,1007.53
2016-10-24T02:41:16.850Z,1007.53
2016-10-24T02:42:16.832Z,1007.53
2016-10-24T02:43:16.815Z,1007.53
2016-10-24T02:44:16.798Z,1007.53
2016-10-24T02:45:16.783Z,1007.55
2016-10-24T02:46:16.765Z,1007.59
2016-10-24T02:47:16.752Z,1007.58
2016-10-24T02:48:16.732Z,1007.62
2016-10-24T02:49:16.719Z,1007.59
2016-10-24T02:50:16.699Z,1007.61
2016-10-24T02:51:16.682Z,1007.6
2016-10-24T02:52:16.666Z,1007.64
2016-10-24T02:53:16.649Z,1007.59
2016-10-24T02:54:16.634Z,1007.62
2016-10-24T02:55:16.617Z,1007.59
2016-10-24T02:56:16.606Z,1007.57
2016-10-24T02:57:16.585Z,1007.57
2016-10-24T02:58:16.568Z,1007.56
2016-10-24T02:59:16.552Z,1007.52
2016-10-24T03:00:16.533Z,1007.51
2016-10-24T03:01:16.516Z,1007.48
2016-10-24T03:02:16.499Z,1007.45
2016-10-24T03:03:16.487Z,1007.42
2016-10-24T03:04:16.469Z,1007.4
2016-10-24T03:05:16.456Z,1007.4
2016-10-24T03:06:16.435Z,1007.37
2016-10-24T03:07:16.417Z,1007.43
2016-10-24T03:08:16.402Z,1007.41
2016-10-24T03:09:16.383Z,1007.4
2016-10-24T03:10:16.370Z,1007.42
2016-10-24T03:11:16.353Z,1007.31
2016-10-24T03:12:16.337Z,1007.29
2016-10-24T03:13:16.320Z,1007.35
2016-10-24T03:14:16.303Z,1007.36
2016-10-24T03:15:16.286Z,1007.39
2016-10-24T03:16:16.268Z,1007.37
2016-10-24T03:17:16.255Z,1007.35
2016-10-24T03:18:16.236Z,1007.34
2016-10-24T03:19:16.218Z,1007.36
2016-10-24T03:20:16.202Z,1007.35
2016-10-24T03:21:16.189Z,1007.35
2016-10-24T03:22:16.170Z,1007.3
2016-10-24T03:23:16.157Z,1007.29
2016-10-24T03:24:16.137Z,1007.3
2016-10-24T03:25:16.124Z,1007.35
2016-10-24T03:26:16.103Z,1007.33
2016-10-24T03:27:16.086Z,1007.35
2016-10-24T03:28:16.069Z,1007.34
2016-10-24T03:29:16.053Z,1007.28
2016-10-24T03:30:16.039Z,1007.37
2016-10-24T03:31:16.021Z,1007.32
2016-10-24T03:32:16.002Z,1007.36
2016-10-24T03:33:15.987Z,1007.37
2016-10-24T03:34:15.970Z,1007.33
2016-10-24T03:35:15.955Z,1007.33
2016-10-24T03:36:15.942Z,1007.35
2016-10-24T03:37:15.919Z,1007.39
2016-10-24T03:38:15.903Z,1007.39
2016-10-24T03:39:15.890Z,1007.42
2016-10-24T03:40:15.871Z,1007.41
2016-10-24T03:41:15.852Z,1007.43
2016-10-24T03:42:15.838Z,1007.44
2016-10-24T03:43:15.825Z,1007.49
2016-10-24T03:44:15.807Z,1007.49
2016-10-24T03:45:15.788Z,1007.48
2016-10-24T03:46:15.771Z,1007.44
2016-10-24T03:47:15.755Z,1007.36
2016-10-24T03:48:15.737Z,1007.39
2016-10-24T03:49:15.720Z,1007.37
2016-10-24T03:50:15.705Z,1007.38
2016-10-24T03:51:15.688Z,1007.39
2016-10-24T03:52:15.670Z,1007.38
2016-10-24T03:53:15.655Z,1007.44
2016-10-24T03:54:15.636Z,1007.44
2016-10-24T03:55:15.621Z,1007.47
2016-10-24T03:56:15.602Z,1007.43
2016-10-24T03:57:15.590Z,1007.42
2016-10-24T03:58:15.571Z,1007.42
2016-10-24T03:59:15.552Z,1007.37
2016-10-24T04:00:15.537Z,1007.36
2016-10-24T04:01:15.522Z,1007.33
2016-10-24T04:02:15.503Z,1007.33
2016-10-24T04:03:15.490Z,1007.37
2016-10-24T04:04:15.472Z,1007.34
2016-10-24T04:05:15.454Z,1007.42
2016-10-24T04:06:15.442Z,1007.39
2016-10-24T04:07:15.422Z,1007.45
2016-10-24T04:08:15.405Z,1007.48
2016-10-24T04:09:15.390Z,1007.55
2016-10-24T04:10:15.371Z,1007.57
2016-10-24T04:11:15.357Z,1007.63
2016-10-24T04:12:15.338Z,1007.59
2016-10-24T04:13:15.323Z,1007.61
2016-10-24T04:14:15.306Z,1007.56
2016-10-24T04:15:15.296Z,1007.58
2016-10-24T04:16:15.272Z,1007.57
2016-10-24T04:17:15.258Z,1007.63
2016-10-24T04:18:15.239Z,1007.68
2016-10-24T04:19:15.222Z,1007.7
2016-10-24T04:20:15.207Z,1007.7
2016-10-24T04:21:15.188Z,1007.71
2016-10-24T04:22:15.173Z,1007.71
2016-10-24T04:23:15.156Z,1007.78
2016-10-24T04:24:15.140Z,1007.86
2016-10-24T04:25:15.122Z,1007.89
2016-10-24T04:26:15.114Z,1007.92
2016-10-24T04:27:15.090Z,1007.95
2016-10-24T04:28:15.071Z,1007.97
2016-10-24T04:29:15.060Z,1007.96
2016-10-24T04:30:15.041Z,1007.92
2016-10-24T04:31:15.026Z,1007.82
2016-10-24T04:32:15.008Z,1007.78
2016-10-24T04:33:14.995Z,1007.76
2016-10-24T04:34:14.976Z,1007.71
2016-10-24T04:35:14.959Z,1007.71
2016-10-24T04:36:14.944Z,1007.67
2016-10-24T04:37:14.926Z,1007.72
2016-10-24T04:38:14.919Z,1007.71
2016-10-24T04:39:14.892Z,1007.78
2016-10-24T04:40:14.877Z,1007.78
2016-10-24T04:41:14.859Z,1007.87
2016-10-24T04:42:14.844Z,1007.84
2016-10-24T04:43:14.825Z,1007.87
2016-10-24T04:44:14.810Z,1007.82
2016-10-24T04:45:14.797Z,1007.79
2016-10-24T04:46:14.775Z,1007.72
2016-10-24T04:47:14.762Z,1007.62
2016-10-24T04:48:14.745Z,1007.59
2016-10-24T04:49:14.730Z,1007.57
2016-10-24T04:50:14.713Z,1007.58
2016-10-24T04:51:14.695Z,1007.6
2016-10-24T04:52:14.679Z,1007.64
2016-10-24T04:53:14.668Z,1007.7
2016-10-24T04:54:14.648Z,1007.68
2016-10-24T04:55:14.630Z,1007.66
2016-10-24T04:56:14.615Z,1007.66
2016-10-24T04:57:14.600Z,1007.72
2016-10-24T04:58:14.581Z,1007.74
2016-10-24T04:59:14.563Z,1007.68
2016-10-24T05:00:14.550Z,1007.68
2016-10-24T05:01:14.532Z,1007.75
2016-10-24T05:02:14.515Z,1007.83
2016-10-24T05:03:14.498Z,1007.85
2016-10-24T05:04:14.485Z,1007.86
2016-10-24T05:05:14.467Z,1007.9
2016-10-24T05:06:14.450Z,1007.91
2016-10-24T05:07:14.434Z,1007.95
2016-10-24T05:08:14.419Z,1007.98
2016-10-24T05:09:14.398Z,1007.97
2016-10-24T05:10:14.385Z,1008.02
2016-10-24T05:11:14.371Z,1008.07
2016-10-24T05:12:14.352Z,1008.11
2016-10-24T05:13:14.337Z,1008.12
2016-10-24T05:14:14.320Z,1008.19
2016-10-24T05:15:14.305Z,1008.1
2016-10-24T05:16:14.288Z,1008.1
2016-10-24T05:17:14.274Z,1008.03
2016-10-24T05:18:14.261Z,1007.97
2016-10-24T05:19:14.238Z,1007.94
2016-10-24T05:20:14.222Z,1007.95
2016-10-24T05:21:14.211Z,1007.99
2016-10-24T05:22:14.188Z,1008.04
2016-10-24T05:23:14.174Z,1008.07
2016-10-24T05:24:14.157Z,1008.13
2016-10-24T05:25:14.142Z,1008.17
2016-10-24T05:26:14.125Z,1008.24
2016-10-24T05:27:14.110Z,1008.21
2016-10-24T05:28:14.097Z,1008.2
2016-10-24T05:29:14.076Z,1008.14
2016-10-24T05:30:14.060Z,1008.1
2016-10-24T05:31:14.043Z,1008.13
2016-10-24T05:32:14.028Z,1008.07
2016-10-24T05:33:14.012Z,1008.07
2016-10-24T05:34:13.994Z,1008.06
2016-10-24T05:35:13.980Z,1008.1
2016-10-24T05:36:13.964Z,1008.08
2016-10-24T05:37:13.945Z,1007.98
2016-10-24T05:38:13.932Z,1007.98
2016-10-24T05:39:13.915Z,1007.9
2016-10-24T05:40:13.900Z,1007.85
2016-10-24T05:41:13.886Z,1007.87
2016-10-24T05:42:13.867Z,1007.86
2016-10-24T05:43:13.856Z,1007.86
2016-10-24T05:44:13.837Z,1007.88
2016-10-24T05:45:13.819Z,1007.85
2016-10-24T05:46:13.801Z,1007.81
2016-10-24T05:47:13.787Z,1007.78
2016-10-24T05:48:13.772Z,1007.81
2016-10-24T05:49:13.755Z,1007.75
2016-10-24T05:50:13.740Z,1007.77
2016-10-24T05:51:13.722Z,1007.75
2016-10-24T05:52:13.706Z,1007.7
2016-10-24T05:53:13.692Z,1007.68
2016-10-24T05:54:13.677Z,1007.73
2016-10-24T05:55:13.659Z,1007.77
2016-10-24T05:56:13.646Z,1007.82
2016-10-24T05:57:13.627Z,1007.89
2016-10-24T05:58:13.612Z,1007.89
2016-10-24T05:59:13.594Z,1007.97
2016-10-24T06:00:13.579Z,1007.98
2016-10-24T06:01:13.564Z,1008.05
2016-10-24T06:02:13.545Z,1008.06
2016-10-24T06:03:13.530Z,1008.03
2016-10-24T06:04:13.514Z,1007.98
2016-10-24T06:05:13.498Z,1008.02
2016-10-24T06:06:13.484Z,1008
2016-10-24T06:07:13.465Z,1008.04
2016-10-24T06:08:13.449Z,1008.02
2016-10-24T06:09:13.434Z,1008
2016-10-24T06:10:13.417Z,1007.97
2016-10-24T06:11:13.406Z,1007.89
2016-10-24T06:12:13.387Z,1007.88
2016-10-24T06:13:13.372Z,1007.82
2016-10-24T06:14:13.352Z,1007.81
2016-10-24T06:15:13.337Z,1007.79
2016-10-24T06:16:13.324Z,1007.8
2016-10-24T06:17:13.306Z,1007.81
2016-10-24T06:18:13.291Z,1007.86
2016-10-24T06:19:13.272Z,1007.92
2016-10-24T06:20:13.260Z,1007.97
2016-10-24T06:21:13.242Z,1008.06
2016-10-24T06:22:13.227Z,1008.02
2016-10-24T06:23:13.211Z,1008.09
2016-10-24T06:24:13.198Z,1008.11
2016-10-24T06:25:13.179Z,1008.11
2016-10-24T06:26:13.163Z,1008.07
2016-10-24T06:27:13.146Z,1008.12
2016-10-24T06:28:13.131Z,1008.15
2016-10-24T06:29:13.116Z,1008.15
2016-10-24T06:30:13.097Z,1008.23
2016-10-24T06:31:13.084Z,1008.26
2016-10-24T06:32:13.065Z,1008.34
2016-10-24T06:33:13.051Z,1008.34
2016-10-24T06:34:13.036Z,1008.39
2016-10-24T06:35:13.019Z,1008.33
2016-10-24T06:36:13.004Z,1008.29
2016-10-24T06:37:12.988Z,1008.3
2016-10-24T06:38:12.973Z,1008.37
2016-10-24T06:39:12.958Z,1008.37
2016-10-24T06:40:12.940Z,1008.34
2016-10-24T06:41:12.932Z,1008.32
2016-10-24T06:42:12.906Z,1008.26
2016-10-24T06:43:12.891Z,1008.23
2016-10-24T06:44:12.876Z,1008.17
2016-10-24T06:45:12.858Z,1008.2
2016-10-24T06:46:12.846Z,1008.2
2016-10-24T06:47:12.828Z,1008.22
2016-10-24T06:48:12.813Z,1008.15
2016-10-24T06:49:12.798Z,1008.13
2016-10-24T06:50:12.783Z,1008.11
2016-10-24T06:51:12.764Z,1008.07
2016-10-24T06:52:12.752Z,1008.02
2016-10-24T06:53:12.733Z,1007.97
2016-10-24T06:54:12.722Z,1007.91
2016-10-24T06:55:12.705Z,1007.87
2016-10-24T06:56:12.685Z,1007.84
2016-10-24T06:57:12.671Z,1007.88
2016-10-24T06:58:12.656Z,1007.83
2016-10-24T06:59:12.638Z,1007.84
2016-10-24T07:00:12.623Z,1007.87
2016-10-24T07:01:12.607Z,1007.9
2016-10-24T07:02:12.589Z,1007.93
2016-10-24T07:03:12.575Z,1007.98
2016-10-24T07:04:12.558Z,1008
2016-10-24T07:05:12.541Z,1007.94
2016-10-24T07:06:12.526Z,1007.96
2016-10-24T07:07:12.510Z,1007.94
2016-10-24T07:08:12.495Z,1007.95
2016-10-24T07:09:12.481Z,1007.94
2016-10-24T07:10:12.463Z,1007.99
2016-10-24T07:11:12.448Z,1007.99
2016-10-24T07:12:12.432Z,1008.02
2016-10-24T07:13:12.416Z,1008.04
2016-10-24T07:14:12.400Z,1008.13
2016-10-24T07:15:12.384Z,1008.14
2016-10-24T07:16:12.367Z,1008.16
2016-10-24T07:17:12.352Z,1008.18
2016-10-24T07:18:12.337Z,1008.19
2016-10-24T07:19:12.322Z,1008.13
2016-10-24T07:20:12.305Z,1008.12
2016-10-24T07:21:12.287Z,1008.12
2016-10-24T07:22:12.271Z,1008.06
2016-10-24T07:23:12.258Z,1007.96
2016-10-24T07:24:12.242Z,1007.96
2016-10-24T07:25:12.226Z,1008
2016-10-24T07:26:12.220Z,1007.97
2016-10-24T07:27:12.192Z,1008.02
2016-10-24T07:28:12.177Z,1008.04
2016-10-24T07:29:12.161Z,1008.1
2016-10-24T07:30:12.149Z,1008.08
2016-10-24T07:31:12.127Z,1008.07
2016-10-24T07:32:12.112Z,1008.15
2016-10-24T07:33:12.098Z,1008.21
2016-10-24T07:34:12.081Z,1008.23
2016-10-24T07:35:12.068Z,1008.29
2016-10-24T07:36:12.051Z,1008.34
2016-10-24T07:37:12.034Z,1008.31
2016-10-24T07:38:12.019Z,1008.32
2016-10-24T07:39:12.001Z,1008.23
2016-10-24T07:40:11.987Z,1008.17
2016-10-24T07:41:11.969Z,1008.15
2016-10-24T07:42:11.956Z,1008.15
2016-10-24T07:43:11.939Z,1008.15
2016-10-24T07:44:11.922Z,1008.16
2016-10-24T07:45:11.906Z,1008.22
2016-10-24T07:46:11.891Z,1008.22
2016-10-24T07:47:11.876Z,1008.21
2016-10-24T07:48:11.859Z,1008.17
2016-10-24T07:49:11.843Z,1008.15
2016-10-24T07:50:11.828Z,1008.15
2016-10-24T07:51:11.811Z,1008.14
2016-10-24T07:52:11.798Z,1008.16
2016-10-24T07:53:11.778Z,1008.16
2016-10-24T07:54:11.761Z,1008.17
2016-10-24T07:55:11.748Z,1008.23
2016-10-24T07:56:11.735Z,1008.26
2016-10-24T07:57:11.716Z,1008.27
2016-10-24T07:58:11.700Z,1008.23
2016-10-24T07:59:11.685Z,1008.22
2016-10-24T08:00:11.670Z,1008.18
2016-10-24T08:01:11.653Z,1008.18
2016-10-24T08:02:11.636Z,1008.14
2016-10-24T08:03:11.619Z,1008.13
2016-10-24T08:04:11.605Z,1008.14
2016-10-24T08:05:11.588Z,1008.15
2016-10-24T08:06:11.573Z,1008.12
2016-10-24T08:07:11.556Z,1008.07
2016-10-24T08:08:11.540Z,1007.98
2016-10-24T08:09:11.526Z,1007.93
2016-10-24T08:10:11.510Z,1007.94
2016-10-24T08:11:11.495Z,1007.93
2016-10-24T08:12:11.479Z,1007.97
2016-10-24T08:13:11.510Z,1007.98
2016-10-24T08:14:11.447Z,1008.03
2016-10-24T08:15:11.430Z,1008.02
2016-10-24T08:16:11.414Z,1008.06
2016-10-24T08:17:11.400Z,1008.08
2016-10-24T08:18:11.382Z,1008.11
2016-10-24T08:19:11.367Z,1008.14
2016-10-24T08:20:11.351Z,1008.12
2016-10-24T08:21:11.333Z,1008.14
2016-10-24T08:22:11.317Z,1008.12
2016-10-24T08:23:11.300Z,1008.16
2016-10-24T08:24:11.286Z,1008.18
2016-10-24T08:25:11.272Z,1008.21
2016-10-24T08:26:11.258Z,1008.23
2016-10-24T08:27:11.239Z,1008.22
2016-10-24T08:28:11.226Z,1008.23
2016-10-24T08:29:11.208Z,1008.29
2016-10-24T08:30:11.196Z,1008.27
2016-10-24T08:31:11.176Z,1008.24
2016-10-24T08:32:11.161Z,1008.15
2016-10-24T08:33:11.144Z,1008.12
2016-10-24T08:34:11.129Z,1008.14
2016-10-24T08:35:11.110Z,1008.13
2016-10-24T08:36:11.096Z,1008.17
2016-10-24T08:37:11.079Z,1008.19
2016-10-24T08:38:11.062Z,1008.19
2016-10-24T08:39:11.050Z,1008.14
2016-10-24T08:40:11.033Z,1008.12
2016-10-24T08:41:11.016Z,1008.08
2016-10-24T08:42:11.003Z,1008.07
2016-10-24T08:43:10.986Z,1008.12
2016-10-24T08:44:10.969Z,1008.15
2016-10-24T08:45:10.954Z,1008.2
2016-10-24T08:46:10.940Z,1008.24
2016-10-24T08:47:10.923Z,1008.25
2016-10-24T08:48:10.908Z,1008.19
2016-10-24T08:49:10.890Z,1008.11
2016-10-24T08:50:10.885Z,1008.02
2016-10-24T08:51:10.858Z,1008.03
2016-10-24T08:52:10.847Z,1007.99
2016-10-24T08:53:10.828Z,1008.03
2016-10-24T08:54:10.812Z,1008.03
2016-10-24T08:55:10.795Z,1008.07
2016-10-24T08:56:10.780Z,1008.03
2016-10-24T08:57:10.764Z,1008.03
2016-10-24T08:58:10.756Z,1008
2016-10-24T08:59:10.732Z,1007.98
2016-10-24T09:00:10.718Z,1007.9
2016-10-24T09:01:10.701Z,1007.85
2016-10-24T09:02:10.685Z,1007.86
2016-10-24T09:03:10.671Z,1007.83
2016-10-24T09:04:10.654Z,1007.83
2016-10-24T09:05:10.643Z,1007.83
2016-10-24T09:06:10.624Z,1007.89
2016-10-24T09:07:10.606Z,1007.87
2016-10-24T09:08:10.593Z,1007.9
2016-10-24T09:09:10.574Z,1007.84
2016-10-24T09:10:10.557Z,1007.83
2016-10-24T09:11:10.541Z,1007.85
2016-10-24T09:12:10.531Z,1007.78
2016-10-24T09:13:10.509Z,1007.78
2016-10-24T09:14:10.494Z,1007.74
2016-10-24T09:15:10.480Z,1007.73
2016-10-24T09:16:10.462Z,1007.69
2016-10-24T09:17:10.444Z,1007.7
2016-10-24T09:18:10.433Z,1007.65
2016-10-24T09:19:10.431Z,1007.66
2016-10-24T09:20:10.426Z,1007.68
2016-10-24T09:21:10.384Z,1007.67
2016-10-24T09:22:10.366Z,1007.68
2016-10-24T09:23:10.359Z,1007.64
2016-10-24T09:24:10.336Z,1007.67
2016-10-24T09:25:10.321Z,1007.65
2016-10-24T09:26:10.303Z,1007.63
2016-10-24T09:27:10.289Z,1007.65
2016-10-24T09:28:10.273Z,1007.65
2016-10-24T09:29:10.256Z,1007.62
2016-10-24T09:30:10.241Z,1007.66
2016-10-24T09:31:10.225Z,1007.68
2016-10-24T09:32:10.209Z,1007.69
2016-10-24T09:33:10.193Z,1007.67
2016-10-24T09:34:10.176Z,1007.72
2016-10-24T09:35:10.158Z,1007.73
2016-10-24T09:36:10.145Z,1007.77
2016-10-24T09:37:10.130Z,1007.76
2016-10-24T09:38:10.115Z,1007.74
2016-10-24T09:39:10.097Z,1007.72
2016-10-24T09:40:10.080Z,1007.79
2016-10-24T09:41:10.067Z,1007.74
2016-10-24T09:42:10.050Z,1007.71
2016-10-24T09:43:10.034Z,1007.74
2016-10-24T09:44:10.019Z,1007.73
2016-10-24T09:45:10.006Z,1007.72
2016-10-24T09:46:09.989Z,1007.68
2016-10-24T09:47:09.972Z,1007.63
2016-10-24T09:48:09.956Z,1007.67
2016-10-24T09:49:09.939Z,1007.65
2016-10-24T09:50:09.924Z,1007.62
2016-10-24T09:51:09.907Z,1007.63
2016-10-24T09:52:09.891Z,1007.6
2016-10-24T09:53:09.880Z,1007.62
2016-10-24T09:54:09.859Z,1007.63
2016-10-24T09:55:09.843Z,1007.61
2016-10-24T09:56:09.829Z,1007.6
2016-10-24T09:57:09.810Z,1007.59
2016-10-24T09:58:09.795Z,1007.6
2016-10-24T09:59:09.779Z,1007.64
2016-10-24T10:00:09.764Z,1007.62
2016-10-24T10:01:09.745Z,1007.66
2016-10-24T10:02:09.730Z,1007.68
2016-10-24T10:03:09.716Z,1007.69
2016-10-24T10:04:09.698Z,1007.71
2016-10-24T10:05:09.681Z,1007.76
2016-10-24T10:06:09.666Z,1007.71
2016-10-24T10:07:09.652Z,1007.72
2016-10-24T10:08:09.637Z,1007.7
2016-10-24T10:09:09.619Z,1007.72
2016-10-24T10:10:09.605Z,1007.68
2016-10-24T10:11:09.588Z,1007.66
2016-10-24T10:12:09.574Z,1007.67
2016-10-24T10:13:09.560Z,1007.68
2016-10-24T10:14:09.539Z,1007.65
2016-10-24T10:15:09.522Z,1007.66
2016-10-24T10:16:09.508Z,1007.65
2016-10-24T10:17:09.505Z,1007.64
2016-10-24T10:18:09.477Z,1007.65
2016-10-24T10:19:09.461Z,1007.63
2016-10-24T10:20:09.444Z,1007.62
2016-10-24T10:21:09.431Z,1007.56
2016-10-24T10:22:09.413Z,1007.59
2016-10-24T10:23:09.400Z,1007.59
2016-10-24T10:24:09.382Z,1007.55
2016-10-24T10:25:09.367Z,1007.55
2016-10-24T10:26:09.350Z,1007.55
2016-10-24T10:27:09.338Z,1007.56
2016-10-24T10:28:09.320Z,1007.51
2016-10-24T10:29:09.306Z,1007.57
2016-10-24T10:30:09.285Z,1007.57
2016-10-24T10:31:09.272Z,1007.59
2016-10-24T10:32:09.254Z,1007.56
2016-10-24T10:33:09.239Z,1007.61
2016-10-24T10:34:09.219Z,1007.58
2016-10-24T10:35:09.206Z,1007.55
2016-10-24T10:36:09.193Z,1007.57
2016-10-24T10:37:09.176Z,1007.6
2016-10-24T10:38:09.158Z,1007.53
2016-10-24T10:39:09.146Z,1007.6
2016-10-24T10:40:09.137Z,1007.59
2016-10-24T10:41:09.110Z,1007.61
2016-10-24T10:42:09.105Z,1007.61
2016-10-24T10:43:09.078Z,1007.6
2016-10-24T10:44:09.069Z,1007.61
2016-10-24T10:45:09.047Z,1007.57
2016-10-24T10:46:09.033Z,1007.59
2016-10-24T10:47:09.017Z,1007.59
2016-10-24T10:48:08.999Z,1007.57
2016-10-24T10:49:08.987Z,1007.53
2016-10-24T10:50:08.973Z,1007.5
2016-10-24T10:51:08.952Z,1007.52
2016-10-24T10:52:08.937Z,1007.42
2016-10-24T10:53:08.921Z,1007.45
2016-10-24T10:54:08.906Z,1007.43
2016-10-24T10:55:08.889Z,1007.44
2016-10-24T10:56:08.874Z,1007.4
2016-10-24T10:57:08.859Z,1007.35
2016-10-24T10:58:08.841Z,1007.35
2016-10-24T10:59:08.828Z,1007.34
2016-10-24T11:00:08.811Z,1007.34
2016-10-24T11:01:08.793Z,1007.32
2016-10-24T11:02:08.778Z,1007.32
2016-10-24T11:03:08.763Z,1007.32
2016-10-24T11:04:08.746Z,1007.37
2016-10-24T11:05:08.729Z,1007.35
2016-10-24T11:06:08.716Z,1007.34
2016-10-24T11:07:08.699Z,1007.36
2016-10-24T11:08:08.687Z,1007.35
2016-10-24T11:09:08.667Z,1007.31
2016-10-24T11:10:08.650Z,1007.32
2016-10-24T11:11:08.635Z,1007.25
2016-10-24T11:12:08.618Z,1007.28
2016-10-24T11:13:08.605Z,1007.35
2016-10-24T11:14:08.589Z,1007.29
2016-10-24T11:15:08.573Z,1007.33
2016-10-24T11:16:08.557Z,1007.33
2016-10-24T11:17:08.540Z,1007.32
2016-10-24T11:18:08.530Z,1007.35
2016-10-24T11:19:08.509Z,1007.37
2016-10-24T11:20:08.494Z,1007.39
2016-10-24T11:21:08.477Z,1007.43
2016-10-24T11:22:08.462Z,1007.46
2016-10-24T11:23:08.447Z,1007.45
2016-10-24T11:24:08.430Z,1007.44
2016-10-24T11:25:08.415Z,1007.44
2016-10-24T11:26:08.399Z,1007.43
2016-10-24T11:27:08.384Z,1007.42
2016-10-24T11:28:08.370Z,1007.41
2016-10-24T11:29:08.352Z,1007.41
2016-10-24T11:30:08.337Z,1007.43
2016-10-24T11:31:08.322Z,1007.45
2016-10-24T11:32:08.303Z,1007.42
2016-10-24T11:33:08.289Z,1007.4
2016-10-24T11:34:08.274Z,1007.31
2016-10-24T11:35:08.258Z,1007.27
2016-10-24T11:36:08.240Z,1007.22
2016-10-24T11:37:08.227Z,1007.12
2016-10-24T11:38:08.210Z,1007.07
2016-10-24T11:39:08.198Z,1007.02
2016-10-24T11:40:08.179Z,1007.01
2016-10-24T11:41:08.162Z,1007.01
2016-10-24T11:42:08.146Z,1007.03
2016-10-24T11:43:08.130Z,1007
2016-10-24T11:44:08.112Z,1007
2016-10-24T11:45:08.099Z,1007
2016-10-24T11:46:08.084Z,1006.98
2016-10-24T11:47:08.070Z,1006.99
2016-10-24T11:48:08.052Z,1006.99
2016-10-24T11:49:08.036Z,1006.97
2016-10-24T11:50:08.019Z,1006.97
2016-10-24T11:51:08.004Z,1007
2016-10-24T11:52:07.989Z,1007.02
2016-10-24T11:53:07.974Z,1006.97
2016-10-24T11:54:07.957Z,1006.95
2016-10-24T11:55:07.941Z,1006.93
2016-10-24T11:56:07.926Z,1006.97
2016-10-24T11:57:07.911Z,1006.94
2016-10-24T11:58:07.898Z,1007
2016-10-24T11:59:07.879Z,1006.94
2016-10-24T12:00:07.864Z,1007.01
2016-10-24T12:01:07.851Z,1007.03
2016-10-24T12:02:07.831Z,1007.05
2016-10-24T12:03:07.816Z,1007.08
2016-10-24T12:04:07.801Z,1007.13
2016-10-24T12:05:07.784Z,1007.1
2016-10-24T12:06:07.769Z,1007.13
2016-10-24T12:07:07.754Z,1007.18
2016-10-24T12:08:07.738Z,1007.22